sensor_id;sensor_type;location;lat;lon;timestamp;P1;durP1;ratioP1;P2;durP2;ratioP2
4704;SDS011;2366;51.332;6.610;2022-09-01T00:01:19;2.63;;;1.27;;
4704;SDS011;2366;51.332;6.610;2022-09-01T00:03:46;1.25;;;1.10;;
4704;SDS011;2366;51.332;6.610;2022-09-01T00:06:13;1.92;;;1.27;;
4704;SDS011;2366;51.332;6.610;2022-09-01T00:08:40;3.00;;;1.08;;
4704;SDS011;2366;51.332;6.610;2022-09-01T00:11:05;1.57;;;1.20;;
4704;SDS011;2366;51.332;6.610;2022-09-01T00:13:31;2.60;;;1.13;;
4704;SDS011;2366;51.332;6.610;2022-09-01T00:15:58;1.30;;;0.98;;
4704;SDS011;2366;51.332;6.610;2022-09-01T00:18:25;1.60;;;1.33;;
4704;SDS011;2366;51.332;6.610;2022-09-01T00:20:50;2.00;;;1.03;;
4704;SDS011;2366;51.332;6.610;2022-09-01T00:23:15;2.13;;;1.50;;
4704;SDS011;2366;51.332;6.610;2022-09-01T00:25:41;1.33;;;1.20;;
4704;SDS011;2366;51.332;6.610;2022-09-01T00:28:06;1.77;;;1.00;;
4704;SDS011;2366;51.332;6.610;2022-09-01T00:30:31;2.13;;;1.77;;
4704;SDS011;2366;51.332;6.610;2022-09-01T00:32:57;2.80;;;1.67;;
4704;SDS011;2366;51.332;6.610;2022-09-01T00:35:22;1.67;;;1.30;;
4704;SDS011;2366;51.332;6.610;2022-09-01T00:37:48;1.60;;;1.13;;
4704;SDS011;2366;51.332;6.610;2022-09-01T00:40:14;2.73;;;1.70;;
4704;SDS011;2366;51.332;6.610;2022-09-01T00:42:41;7.43;;;2.28;;
4704;SDS011;2366;51.332;6.610;2022-09-01T00:45:08;2.13;;;1.48;;
4704;SDS011;2366;51.332;6.610;2022-09-01T00:47:35;2.03;;;1.40;;
4704;SDS011;2366;51.332;6.610;2022-09-01T00:50:02;1.80;;;1.40;;
4704;SDS011;2366;51.332;6.610;2022-09-01T00:52:31;1.95;;;1.50;;
4704;SDS011;2366;51.332;6.610;2022-09-01T00:55:03;2.85;;;1.38;;
4704;SDS011;2366;51.332;6.610;2022-09-01T00:57:35;3.63;;;1.83;;
4704;SDS011;2366;51.332;6.610;2022-09-01T01:00:04;6.63;;;1.43;;
4704;SDS011;2366;51.332;6.610;2022-09-01T01:02:39;5.10;;;1.45;;
4704;SDS011;2366;51.332;6.610;2022-09-01T01:05:06;1.85;;;1.60;;
4704;SDS011;2366;51.332;6.610;2022-09-01T01:07:32;1.60;;;0.90;;
4704;SDS011;2366;51.332;6.610;2022-09-01T01:10:03;2.60;;;1.25;;
4704;SDS011;2366;51.332;6.610;2022-09-01T01:12:31;1.48;;;1.30;;
4704;SDS011;2366;51.332;6.610;2022-09-01T01:14:57;3.42;;;1.25;;
4704;SDS011;2366;51.332;6.610;2022-09-01T01:17:23;1.60;;;1.50;;
4704;SDS011;2366;51.332;6.610;2022-09-01T01:22:19;4.00;;;1.38;;
4704;SDS011;2366;51.332;6.610;2022-09-01T01:25:07;2.95;;;1.35;;
4704;SDS011;2366;51.332;6.610;2022-09-01T01:27:36;2.90;;;1.30;;
4704;SDS011;2366;51.332;6.610;2022-09-01T01:30:05;1.92;;;1.38;;
4704;SDS011;2366;51.332;6.610;2022-09-01T01:32:33;5.32;;;1.48;;
4704;SDS011;2366;51.332;6.610;2022-09-01T01:35:00;9.90;;;2.15;;
4704;SDS011;2366;51.332;6.610;2022-09-01T01:37:27;2.25;;;1.48;;
4704;SDS011;2366;51.332;6.610;2022-09-01T01:39:52;1.63;;;1.20;;
4704;SDS011;2366;51.332;6.610;2022-09-01T01:42:18;3.10;;;1.93;;
4704;SDS011;2366;51.332;6.610;2022-09-01T01:44:43;3.00;;;1.73;;
4704;SDS011;2366;51.332;6.610;2022-09-01T01:47:11;2.28;;;1.30;;
4704;SDS011;2366;51.332;6.610;2022-09-01T01:49:38;2.78;;;1.33;;
4704;SDS011;2366;51.332;6.610;2022-09-01T01:52:08;1.60;;;1.20;;
4704;SDS011;2366;51.332;6.610;2022-09-01T01:54:40;2.20;;;1.40;;
4704;SDS011;2366;51.332;6.610;2022-09-01T01:57:07;2.63;;;1.67;;
4704;SDS011;2366;51.332;6.610;2022-09-01T01:59:32;3.37;;;0.80;;
4704;SDS011;2366;51.332;6.610;2022-09-01T02:01:58;2.40;;;1.67;;
4704;SDS011;2366;51.332;6.610;2022-09-01T02:04:27;3.45;;;1.95;;
4704;SDS011;2366;51.332;6.610;2022-09-01T02:06:58;4.35;;;1.50;;
4704;SDS011;2366;51.332;6.610;2022-09-01T02:09:24;1.67;;;1.20;;
4704;SDS011;2366;51.332;6.610;2022-09-01T02:11:50;1.73;;;1.63;;
4704;SDS011;2366;51.332;6.610;2022-09-01T02:14:19;7.50;;;1.20;;
4704;SDS011;2366;51.332;6.610;2022-09-01T02:16:45;3.33;;;1.90;;
4704;SDS011;2366;51.332;6.610;2022-09-01T02:19:11;1.43;;;1.33;;
4704;SDS011;2366;51.332;6.610;2022-09-01T02:21:37;4.37;;;2.30;;
4704;SDS011;2366;51.332;6.610;2022-09-01T02:24:08;5.55;;;1.60;;
4704;SDS011;2366;51.332;6.610;2022-09-01T02:26:39;1.55;;;1.45;;
4704;SDS011;2366;51.332;6.610;2022-09-01T02:29:10;1.23;;;1.00;;
4704;SDS011;2366;51.332;6.610;2022-09-01T02:31:45;2.08;;;1.00;;
4704;SDS011;2366;51.332;6.610;2022-09-01T02:34:13;1.52;;;1.38;;
4704;SDS011;2366;51.332;6.610;2022-09-01T02:36:41;3.22;;;1.70;;
4704;SDS011;2366;51.332;6.610;2022-09-01T02:39:11;1.52;;;1.33;;
4704;SDS011;2366;51.332;6.610;2022-09-01T02:41:41;1.65;;;1.17;;
4704;SDS011;2366;51.332;6.610;2022-09-01T02:44:07;1.60;;;1.50;;
4704;SDS011;2366;51.332;6.610;2022-09-01T02:46:36;14.43;;;2.10;;
4704;SDS011;2366;51.332;6.610;2022-09-01T02:49:18;1.17;;;0.93;;
4704;SDS011;2366;51.332;6.610;2022-09-01T02:51:49;3.88;;;1.05;;
4704;SDS011;2366;51.332;6.610;2022-09-01T02:54:18;4.03;;;1.70;;
4704;SDS011;2366;51.332;6.610;2022-09-01T02:56:48;2.10;;;1.63;;
4704;SDS011;2366;51.332;6.610;2022-09-01T02:59:15;3.22;;;2.25;;
4704;SDS011;2366;51.332;6.610;2022-09-01T03:01:46;2.13;;;1.55;;
4704;SDS011;2366;51.332;6.610;2022-09-01T03:04:13;3.08;;;1.80;;
4704;SDS011;2366;51.332;6.610;2022-09-01T03:06:38;3.50;;;1.63;;
4704;SDS011;2366;51.332;6.610;2022-09-01T03:09:08;12.80;;;2.70;;
4704;SDS011;2366;51.332;6.610;2022-09-01T03:11:40;8.75;;;1.90;;
4704;SDS011;2366;51.332;6.610;2022-09-01T03:14:07;2.80;;;2.05;;
4704;SDS011;2366;51.332;6.610;2022-09-01T03:16:33;2.90;;;2.00;;
4704;SDS011;2366;51.332;6.610;2022-09-01T03:19:00;4.15;;;2.00;;
4704;SDS011;2366;51.332;6.610;2022-09-01T03:21:27;6.63;;;2.20;;
4704;SDS011;2366;51.332;6.610;2022-09-01T03:23:55;5.85;;;2.65;;
4704;SDS011;2366;51.332;6.610;2022-09-01T03:26:22;3.83;;;2.08;;
4704;SDS011;2366;51.332;6.610;2022-09-01T03:28:49;3.17;;;2.60;;
4704;SDS011;2366;51.332;6.610;2022-09-01T03:31:16;8.52;;;2.70;;
4704;SDS011;2366;51.332;6.610;2022-09-01T03:33:42;2.63;;;2.00;;
4704;SDS011;2366;51.332;6.610;2022-09-01T03:36:08;3.03;;;1.97;;
4704;SDS011;2366;51.332;6.610;2022-09-01T03:38:43;2.13;;;1.60;;
4704;SDS011;2366;51.332;6.610;2022-09-01T03:41:12;2.55;;;1.50;;
4704;SDS011;2366;51.332;6.610;2022-09-01T03:43:41;2.35;;;1.92;;
4704;SDS011;2366;51.332;6.610;2022-09-01T03:46:07;5.20;;;2.03;;
4704;SDS011;2366;51.332;6.610;2022-09-01T03:48:34;2.30;;;1.50;;
4704;SDS011;2366;51.332;6.610;2022-09-01T03:51:00;6.53;;;2.10;;
4704;SDS011;2366;51.332;6.610;2022-09-01T03:53:27;2.50;;;1.70;;
4704;SDS011;2366;51.332;6.610;2022-09-01T03:55:55;12.13;;;2.40;;
4704;SDS011;2366;51.332;6.610;2022-09-01T03:58:22;3.97;;;1.92;;
4704;SDS011;2366;51.332;6.610;2022-09-01T04:00:50;3.58;;;1.83;;
4704;SDS011;2366;51.332;6.610;2022-09-01T04:03:20;3.80;;;1.85;;
4704;SDS011;2366;51.332;6.610;2022-09-01T04:05:51;11.70;;;2.45;;
4704;SDS011;2366;51.332;6.610;2022-09-01T04:08:18;5.35;;;2.08;;
4704;SDS011;2366;51.332;6.610;2022-09-01T04:10:49;3.80;;;1.77;;
4704;SDS011;2366;51.332;6.610;2022-09-01T04:13:29;3.83;;;1.33;;
4704;SDS011;2366;51.332;6.610;2022-09-01T04:15:59;2.85;;;1.80;;
4704;SDS011;2366;51.332;6.610;2022-09-01T04:18:25;3.73;;;1.60;;
4704;SDS011;2366;51.332;6.610;2022-09-01T04:20:55;1.93;;;1.70;;
4704;SDS011;2366;51.332;6.610;2022-09-01T04:25:58;6.43;;;2.45;;
4704;SDS011;2366;51.332;6.610;2022-09-01T04:28:33;3.45;;;1.80;;
4704;SDS011;2366;51.332;6.610;2022-09-01T04:31:16;1.50;;;1.30;;
4704;SDS011;2366;51.332;6.610;2022-09-01T04:33:44;3.13;;;1.92;;
4704;SDS011;2366;51.332;6.610;2022-09-01T04:38:43;1.95;;;1.85;;
4704;SDS011;2366;51.332;6.610;2022-09-01T04:41:11;2.85;;;2.15;;
4704;SDS011;2366;51.332;6.610;2022-09-01T04:43:41;2.97;;;2.08;;
4704;SDS011;2366;51.332;6.610;2022-09-01T04:46:07;5.78;;;2.30;;
4704;SDS011;2366;51.332;6.610;2022-09-01T04:48:32;3.20;;;1.93;;
4704;SDS011;2366;51.332;6.610;2022-09-01T04:50:58;1.50;;;1.40;;
4704;SDS011;2366;51.332;6.610;2022-09-01T04:53:24;3.80;;;1.73;;
4704;SDS011;2366;51.332;6.610;2022-09-01T04:55:50;3.97;;;1.90;;
4704;SDS011;2366;51.332;6.610;2022-09-01T04:58:19;10.18;;;1.75;;
4704;SDS011;2366;51.332;6.610;2022-09-01T05:00:47;2.55;;;1.83;;
4704;SDS011;2366;51.332;6.610;2022-09-01T05:03:16;2.65;;;1.55;;
4704;SDS011;2366;51.332;6.610;2022-09-01T05:05:45;5.13;;;1.70;;
4704;SDS011;2366;51.332;6.610;2022-09-01T05:08:12;1.47;;;1.37;;
4704;SDS011;2366;51.332;6.610;2022-09-01T05:10:45;3.97;;;2.20;;
4704;SDS011;2366;51.332;6.610;2022-09-01T05:13:14;1.65;;;1.55;;
4704;SDS011;2366;51.332;6.610;2022-09-01T05:15:42;3.25;;;1.58;;
4704;SDS011;2366;51.332;6.610;2022-09-01T05:18:18;2.90;;;1.48;;
4704;SDS011;2366;51.332;6.610;2022-09-01T05:20:52;1.52;;;1.42;;
4704;SDS011;2366;51.332;6.610;2022-09-01T05:23:18;4.80;;;1.60;;
4704;SDS011;2366;51.332;6.610;2022-09-01T05:25:46;1.90;;;1.65;;
4704;SDS011;2366;51.332;6.610;2022-09-01T05:28:17;3.10;;;1.88;;
4704;SDS011;2366;51.332;6.610;2022-09-01T05:30:44;5.30;;;2.08;;
4704;SDS011;2366;51.332;6.610;2022-09-01T05:33:12;3.55;;;2.22;;
4704;SDS011;2366;51.332;6.610;2022-09-01T05:35:40;3.30;;;1.85;;
4704;SDS011;2366;51.332;6.610;2022-09-01T05:38:10;2.88;;;2.25;;
4704;SDS011;2366;51.332;6.610;2022-09-01T05:40:41;1.63;;;1.40;;
4704;SDS011;2366;51.332;6.610;2022-09-01T05:43:08;6.13;;;2.70;;
4704;SDS011;2366;51.332;6.610;2022-09-01T05:45:37;2.35;;;1.33;;
4704;SDS011;2366;51.332;6.610;2022-09-01T05:48:10;2.33;;;1.80;;
4704;SDS011;2366;51.332;6.610;2022-09-01T05:50:38;6.23;;;2.20;;
4704;SDS011;2366;51.332;6.610;2022-09-01T05:53:07;3.67;;;2.07;;
4704;SDS011;2366;51.332;6.610;2022-09-01T05:55:43;7.03;;;2.23;;
4704;SDS011;2366;51.332;6.610;2022-09-01T05:58:10;2.23;;;2.03;;
4704;SDS011;2366;51.332;6.610;2022-09-01T06:00:42;8.20;;;1.50;;
4704;SDS011;2366;51.332;6.610;2022-09-01T06:03:11;3.07;;;1.90;;
4704;SDS011;2366;51.332;6.610;2022-09-01T06:05:38;2.87;;;1.93;;
4704;SDS011;2366;51.332;6.610;2022-09-01T06:08:05;1.63;;;1.53;;
4704;SDS011;2366;51.332;6.610;2022-09-01T06:10:32;2.97;;;1.80;;
4704;SDS011;2366;51.332;6.610;2022-09-01T06:13:01;2.37;;;2.17;;
4704;SDS011;2366;51.332;6.610;2022-09-01T06:15:30;2.20;;;1.50;;
4704;SDS011;2366;51.332;6.610;2022-09-01T06:17:56;3.00;;;1.90;;
4704;SDS011;2366;51.332;6.610;2022-09-01T06:20:23;7.90;;;2.10;;
4704;SDS011;2366;51.332;6.610;2022-09-01T06:22:49;2.60;;;1.87;;
4704;SDS011;2366;51.332;6.610;2022-09-01T06:25:17;1.37;;;1.27;;
4704;SDS011;2366;51.332;6.610;2022-09-01T06:27:43;1.60;;;1.20;;
4704;SDS011;2366;51.332;6.610;2022-09-01T06:30:10;2.10;;;1.60;;
4704;SDS011;2366;51.332;6.610;2022-09-01T06:32:41;1.77;;;1.67;;
4704;SDS011;2366;51.332;6.610;2022-09-01T06:35:09;3.27;;;1.80;;
4704;SDS011;2366;51.332;6.610;2022-09-01T06:37:36;7.20;;;1.30;;
4704;SDS011;2366;51.332;6.610;2022-09-01T06:40:03;5.87;;;1.93;;
4704;SDS011;2366;51.332;6.610;2022-09-01T06:42:29;2.03;;;1.70;;
4704;SDS011;2366;51.332;6.610;2022-09-01T06:44:59;2.23;;;1.63;;
4704;SDS011;2366;51.332;6.610;2022-09-01T06:47:25;2.03;;;1.73;;
4704;SDS011;2366;51.332;6.610;2022-09-01T06:49:53;9.53;;;1.73;;
4704;SDS011;2366;51.332;6.610;2022-09-01T06:52:23;2.20;;;1.70;;
4704;SDS011;2366;51.332;6.610;2022-09-01T06:54:49;3.60;;;1.70;;
4704;SDS011;2366;51.332;6.610;2022-09-01T06:57:18;4.77;;;1.60;;
4704;SDS011;2366;51.332;6.610;2022-09-01T06:59:45;2.73;;;1.30;;
4704;SDS011;2366;51.332;6.610;2022-09-01T07:02:11;8.80;;;2.33;;
4704;SDS011;2366;51.332;6.610;2022-09-01T07:04:40;2.97;;;1.40;;
4704;SDS011;2366;51.332;6.610;2022-09-01T07:07:10;1.90;;;1.27;;
4704;SDS011;2366;51.332;6.610;2022-09-01T07:09:38;3.43;;;1.50;;
4704;SDS011;2366;51.332;6.610;2022-09-01T07:12:04;1.90;;;1.57;;
4704;SDS011;2366;51.332;6.610;2022-09-01T07:14:30;2.63;;;2.17;;
4704;SDS011;2366;51.332;6.610;2022-09-01T07:16:56;2.60;;;1.50;;
4704;SDS011;2366;51.332;6.610;2022-09-01T07:19:24;1.73;;;1.63;;
4704;SDS011;2366;51.332;6.610;2022-09-01T07:21:51;1.60;;;1.50;;
4704;SDS011;2366;51.332;6.610;2022-09-01T07:24:17;2.90;;;1.00;;
4704;SDS011;2366;51.332;6.610;2022-09-01T07:26:44;4.87;;;1.83;;
4704;SDS011;2366;51.332;6.610;2022-09-01T07:29:15;4.47;;;1.70;;
4704;SDS011;2366;51.332;6.610;2022-09-01T07:31:41;2.97;;;1.80;;
4704;SDS011;2366;51.332;6.610;2022-09-01T07:34:09;2.60;;;1.30;;
4704;SDS011;2366;51.332;6.610;2022-09-01T07:36:37;3.80;;;1.60;;
4704;SDS011;2366;51.332;6.610;2022-09-01T07:39:04;7.80;;;1.53;;
4704;SDS011;2366;51.332;6.610;2022-09-01T07:41:30;1.50;;;1.00;;
4704;SDS011;2366;51.332;6.610;2022-09-01T07:43:58;2.93;;;1.47;;
4704;SDS011;2366;51.332;6.610;2022-09-01T07:46:25;1.37;;;0.87;;
4704;SDS011;2366;51.332;6.610;2022-09-01T07:48:54;1.40;;;1.30;;
4704;SDS011;2366;51.332;6.610;2022-09-01T07:51:21;4.40;;;1.33;;
4704;SDS011;2366;51.332;6.610;2022-09-01T07:53:47;4.00;;;1.23;;
4704;SDS011;2366;51.332;6.610;2022-09-01T07:56:14;4.43;;;1.17;;
4704;SDS011;2366;51.332;6.610;2022-09-01T07:58:43;1.00;;;0.90;;
4704;SDS011;2366;51.332;6.610;2022-09-01T08:01:10;5.13;;;1.20;;
4704;SDS011;2366;51.332;6.610;2022-09-01T08:03:41;1.83;;;1.00;;
4704;SDS011;2366;51.332;6.610;2022-09-01T08:06:08;1.20;;;1.10;;
4704;SDS011;2366;51.332;6.610;2022-09-01T08:08:36;1.33;;;0.90;;
4704;SDS011;2366;51.332;6.610;2022-09-01T08:11:03;1.03;;;0.87;;
4704;SDS011;2366;51.332;6.610;2022-09-01T08:13:29;0.70;;;0.70;;
4704;SDS011;2366;51.332;6.610;2022-09-01T08:15:55;0.97;;;0.80;;
4704;SDS011;2366;51.332;6.610;2022-09-01T08:18:21;4.50;;;1.20;;
4704;SDS011;2366;51.332;6.610;2022-09-01T08:20:46;1.77;;;0.70;;
4704;SDS011;2366;51.332;6.610;2022-09-01T08:23:13;2.30;;;1.03;;
4704;SDS011;2366;51.332;6.610;2022-09-01T08:25:41;1.30;;;0.73;;
4704;SDS011;2366;51.332;6.610;2022-09-01T08:28:08;0.80;;;0.60;;
4704;SDS011;2366;51.332;6.610;2022-09-01T08:30:34;1.77;;;1.10;;
4704;SDS011;2366;51.332;6.610;2022-09-01T08:33:00;1.17;;;1.10;;
4704;SDS011;2366;51.332;6.610;2022-09-01T08:35:26;5.80;;;1.00;;
4704;SDS011;2366;51.332;6.610;2022-09-01T08:37:56;3.43;;;1.30;;
4704;SDS011;2366;51.332;6.610;2022-09-01T08:40:22;1.37;;;0.60;;
4704;SDS011;2366;51.332;6.610;2022-09-01T08:48:19;2.50;;;0.63;;
4704;SDS011;2366;51.332;6.610;2022-09-01T08:51:05;1.33;;;1.03;;
4704;SDS011;2366;51.332;6.610;2022-09-01T08:53:34;0.77;;;0.50;;
4704;SDS011;2366;51.332;6.610;2022-09-01T08:56:07;1.67;;;0.53;;
4704;SDS011;2366;51.332;6.610;2022-09-01T08:58:35;1.00;;;0.60;;
4704;SDS011;2366;51.332;6.610;2022-09-01T09:01:02;1.93;;;1.00;;
4704;SDS011;2366;51.332;6.610;2022-09-01T09:04:08;0.80;;;0.70;;
4704;SDS011;2366;51.332;6.610;2022-09-01T09:06:36;1.33;;;0.70;;
4704;SDS011;2366;51.332;6.610;2022-09-01T09:09:13;1.13;;;0.63;;
4704;SDS011;2366;51.332;6.610;2022-09-01T09:11:57;4.90;;;0.80;;
4704;SDS011;2366;51.332;6.610;2022-09-01T09:17:22;0.70;;;0.60;;
4704;SDS011;2366;51.332;6.610;2022-09-01T09:19:53;1.50;;;0.83;;
4704;SDS011;2366;51.332;6.610;2022-09-01T09:22:19;2.13;;;1.30;;
4704;SDS011;2366;51.332;6.610;2022-09-01T09:29:52;2.40;;;0.80;;
4704;SDS011;2366;51.332;6.610;2022-09-01T09:32:20;0.90;;;0.80;;
4704;SDS011;2366;51.332;6.610;2022-09-01T09:34:47;1.20;;;0.63;;
4704;SDS011;2366;51.332;6.610;2022-09-01T09:37:29;2.83;;;0.83;;
4704;SDS011;2366;51.332;6.610;2022-09-01T09:40:09;1.07;;;0.80;;
4704;SDS011;2366;51.332;6.610;2022-09-01T09:42:35;0.50;;;0.40;;
4704;SDS011;2366;51.332;6.610;2022-09-01T09:45:04;1.33;;;1.23;;
4704;SDS011;2366;51.332;6.610;2022-09-01T09:47:41;1.20;;;0.63;;
4704;SDS011;2366;51.332;6.610;2022-09-01T09:50:17;0.90;;;0.70;;
4704;SDS011;2366;51.332;6.610;2022-09-01T09:52:49;0.93;;;0.93;;
4704;SDS011;2366;51.332;6.610;2022-09-01T09:55:23;3.50;;;0.97;;
4704;SDS011;2366;51.332;6.610;2022-09-01T09:57:55;5.37;;;0.90;;
4704;SDS011;2366;51.332;6.610;2022-09-01T10:00:31;1.13;;;0.80;;
4704;SDS011;2366;51.332;6.610;2022-09-01T10:03:02;0.60;;;0.60;;
4704;SDS011;2366;51.332;6.610;2022-09-01T10:08:03;2.47;;;0.87;;
4704;SDS011;2366;51.332;6.610;2022-09-01T10:10:40;3.10;;;0.60;;
4704;SDS011;2366;51.332;6.610;2022-09-01T10:13:13;1.00;;;0.90;;
4704;SDS011;2366;51.332;6.610;2022-09-01T10:15:46;1.33;;;0.70;;
4704;SDS011;2366;51.332;6.610;2022-09-01T10:18:16;0.80;;;0.73;;
4704;SDS011;2366;51.332;6.610;2022-09-01T10:20:58;4.37;;;1.40;;
4704;SDS011;2366;51.332;6.610;2022-09-01T10:23:28;1.27;;;0.80;;
4704;SDS011;2366;51.332;6.610;2022-09-01T10:25:55;0.90;;;0.80;;
4704;SDS011;2366;51.332;6.610;2022-09-01T10:28:28;3.23;;;1.10;;
4704;SDS011;2366;51.332;6.610;2022-09-01T10:30:56;2.20;;;0.83;;
4704;SDS011;2366;51.332;6.610;2022-09-01T10:33:23;1.90;;;1.17;;
4704;SDS011;2366;51.332;6.610;2022-09-01T10:35:50;1.00;;;0.90;;
4704;SDS011;2366;51.332;6.610;2022-09-01T10:38:27;1.30;;;1.20;;
4704;SDS011;2366;51.332;6.610;2022-09-01T10:40:57;0.97;;;0.60;;
4704;SDS011;2366;51.332;6.610;2022-09-01T10:46:08;1.73;;;1.00;;
4704;SDS011;2366;51.332;6.610;2022-09-01T10:48:46;2.20;;;0.77;;
4704;SDS011;2366;51.332;6.610;2022-09-01T10:53:40;3.07;;;0.87;;
4704;SDS011;2366;51.332;6.610;2022-09-01T10:56:18;0.60;;;0.50;;
4704;SDS011;2366;51.332;6.610;2022-09-01T11:04:18;1.10;;;1.00;;
4704;SDS011;2366;51.332;6.610;2022-09-01T11:09:45;2.07;;;0.73;;
4704;SDS011;2366;51.332;6.610;2022-09-01T11:13:15;1.10;;;0.90;;
4704;SDS011;2366;51.332;6.610;2022-09-01T11:18:25;1.10;;;0.87;;
4704;SDS011;2366;51.332;6.610;2022-09-01T11:20:53;1.47;;;0.80;;
4704;SDS011;2366;51.332;6.610;2022-09-01T11:25:46;1.00;;;0.80;;
4704;SDS011;2366;51.332;6.610;2022-09-01T11:30:42;0.70;;;0.70;;
4704;SDS011;2366;51.332;6.610;2022-09-01T11:36:22;4.83;;;0.83;;
4704;SDS011;2366;51.332;6.610;2022-09-01T11:38:53;1.00;;;0.87;;
4704;SDS011;2366;51.332;6.610;2022-09-01T11:41:24;1.97;;;1.00;;
4704;SDS011;2366;51.332;6.610;2022-09-01T11:44:11;1.67;;;1.00;;
4704;SDS011;2366;51.332;6.610;2022-09-01T11:46:42;3.70;;;1.30;;
4704;SDS011;2366;51.332;6.610;2022-09-01T11:51:55;2.70;;;1.10;;
4704;SDS011;2366;51.332;6.610;2022-09-01T11:54:21;1.50;;;0.93;;
4704;SDS011;2366;51.332;6.610;2022-09-01T11:56:48;1.60;;;0.97;;
4704;SDS011;2366;51.332;6.610;2022-09-01T11:59:14;2.10;;;0.90;;
4704;SDS011;2366;51.332;6.610;2022-09-01T12:01:55;0.70;;;0.70;;
4704;SDS011;2366;51.332;6.610;2022-09-01T12:04:25;1.40;;;1.20;;
4704;SDS011;2366;51.332;6.610;2022-09-01T12:07:05;1.10;;;1.00;;
4704;SDS011;2366;51.332;6.610;2022-09-01T12:09:34;0.70;;;0.63;;
4704;SDS011;2366;51.332;6.610;2022-09-01T12:12:01;1.50;;;1.00;;
4704;SDS011;2366;51.332;6.610;2022-09-01T12:14:27;1.10;;;1.00;;
4704;SDS011;2366;51.332;6.610;2022-09-01T12:17:01;1.07;;;0.97;;
4704;SDS011;2366;51.332;6.610;2022-09-01T12:19:33;2.27;;;1.07;;
4704;SDS011;2366;51.332;6.610;2022-09-01T12:22:16;9.80;;;1.40;;
4704;SDS011;2366;51.332;6.610;2022-09-01T12:24:48;1.47;;;1.13;;
4704;SDS011;2366;51.332;6.610;2022-09-01T12:27:16;2.70;;;1.20;;
4704;SDS011;2366;51.332;6.610;2022-09-01T12:29:42;1.87;;;1.77;;
4704;SDS011;2366;51.332;6.610;2022-09-01T12:32:08;2.20;;;1.33;;
4704;SDS011;2366;51.332;6.610;2022-09-01T12:34:39;1.90;;;1.10;;
4704;SDS011;2366;51.332;6.610;2022-09-01T12:37:25;0.77;;;0.77;;
4704;SDS011;2366;51.332;6.610;2022-09-01T12:39:55;1.47;;;0.90;;
4704;SDS011;2366;51.332;6.610;2022-09-01T12:42:23;1.07;;;0.90;;
4704;SDS011;2366;51.332;6.610;2022-09-01T12:45:01;1.63;;;0.93;;
4704;SDS011;2366;51.332;6.610;2022-09-01T12:50:01;1.17;;;0.90;;
4704;SDS011;2366;51.332;6.610;2022-09-01T12:52:28;1.37;;;1.00;;
4704;SDS011;2366;51.332;6.610;2022-09-01T12:57:30;5.37;;;1.57;;
4704;SDS011;2366;51.332;6.610;2022-09-01T13:00:16;4.97;;;1.33;;
4704;SDS011;2366;51.332;6.610;2022-09-01T13:02:45;1.27;;;1.10;;
4704;SDS011;2366;51.332;6.610;2022-09-01T13:05:29;1.30;;;1.10;;
4704;SDS011;2366;51.332;6.610;2022-09-01T13:08:03;5.10;;;1.47;;
4704;SDS011;2366;51.332;6.610;2022-09-01T13:10:34;2.03;;;1.83;;
4704;SDS011;2366;51.332;6.610;2022-09-01T13:13:05;5.00;;;1.10;;
4704;SDS011;2366;51.332;6.610;2022-09-01T13:15:32;10.80;;;1.70;;
4704;SDS011;2366;51.332;6.610;2022-09-01T13:17:59;1.10;;;0.90;;
4704;SDS011;2366;51.332;6.610;2022-09-01T13:20:25;1.00;;;0.90;;
4704;SDS011;2366;51.332;6.610;2022-09-01T13:22:50;1.07;;;0.70;;
4704;SDS011;2366;51.332;6.610;2022-09-01T13:25:18;5.90;;;1.13;;
4704;SDS011;2366;51.332;6.610;2022-09-01T13:27:45;1.53;;;1.10;;
4704;SDS011;2366;51.332;6.610;2022-09-01T13:30:15;1.00;;;0.90;;
4704;SDS011;2366;51.332;6.610;2022-09-01T13:32:44;3.47;;;1.00;;
4704;SDS011;2366;51.332;6.610;2022-09-01T13:35:12;1.30;;;1.17;;
4704;SDS011;2366;51.332;6.610;2022-09-01T13:37:44;3.13;;;1.17;;
4704;SDS011;2366;51.332;6.610;2022-09-01T13:40:10;1.30;;;0.90;;
4704;SDS011;2366;51.332;6.610;2022-09-01T13:42:40;1.03;;;0.80;;
4704;SDS011;2366;51.332;6.610;2022-09-01T13:45:06;2.97;;;1.27;;
4704;SDS011;2366;51.332;6.610;2022-09-01T13:47:31;1.10;;;1.00;;
4704;SDS011;2366;51.332;6.610;2022-09-01T13:49:57;0.90;;;0.80;;
4704;SDS011;2366;51.332;6.610;2022-09-01T13:52:24;1.33;;;0.93;;
4704;SDS011;2366;51.332;6.610;2022-09-01T13:54:49;1.73;;;1.40;;
4704;SDS011;2366;51.332;6.610;2022-09-01T13:57:15;1.50;;;0.73;;
4704;SDS011;2366;51.332;6.610;2022-09-01T13:59:41;0.97;;;0.90;;
4704;SDS011;2366;51.332;6.610;2022-09-01T14:02:07;3.70;;;1.00;;
4704;SDS011;2366;51.332;6.610;2022-09-01T14:04:32;2.17;;;0.90;;
4704;SDS011;2366;51.332;6.610;2022-09-01T14:06:58;1.70;;;1.40;;
4704;SDS011;2366;51.332;6.610;2022-09-01T14:09:24;1.90;;;0.87;;
4704;SDS011;2366;51.332;6.610;2022-09-01T14:11:52;1.17;;;1.07;;
4704;SDS011;2366;51.332;6.610;2022-09-01T14:14:19;1.10;;;1.00;;
4704;SDS011;2366;51.332;6.610;2022-09-01T14:16:44;1.97;;;1.37;;
4704;SDS011;2366;51.332;6.610;2022-09-01T14:19:10;2.67;;;0.90;;
4704;SDS011;2366;51.332;6.610;2022-09-01T14:21:36;2.03;;;1.40;;
4704;SDS011;2366;51.332;6.610;2022-09-01T14:24:02;10.93;;;1.50;;
4704;SDS011;2366;51.332;6.610;2022-09-01T14:26:29;1.43;;;1.20;;
4704;SDS011;2366;51.332;6.610;2022-09-01T14:28:54;4.60;;;1.80;;
4704;SDS011;2366;51.332;6.610;2022-09-01T14:31:20;0.93;;;0.90;;
4704;SDS011;2366;51.332;6.610;2022-09-01T14:33:46;1.73;;;0.93;;
4704;SDS011;2366;51.332;6.610;2022-09-01T14:36:20;2.30;;;1.17;;
4704;SDS011;2366;51.332;6.610;2022-09-01T14:38:47;1.37;;;1.27;;
4704;SDS011;2366;51.332;6.610;2022-09-01T14:41:14;1.27;;;1.00;;
4704;SDS011;2366;51.332;6.610;2022-09-01T14:43:40;1.43;;;1.00;;
4704;SDS011;2366;51.332;6.610;2022-09-01T14:46:09;1.83;;;1.33;;
4704;SDS011;2366;51.332;6.610;2022-09-01T14:48:35;1.90;;;1.37;;
4704;SDS011;2366;51.332;6.610;2022-09-01T14:51:01;2.50;;;1.40;;
4704;SDS011;2366;51.332;6.610;2022-09-01T14:53:28;5.20;;;1.47;;
4704;SDS011;2366;51.332;6.610;2022-09-01T14:55:55;1.70;;;1.10;;
4704;SDS011;2366;51.332;6.610;2022-09-01T14:58:22;2.60;;;1.10;;
4704;SDS011;2366;51.332;6.610;2022-09-01T15:00:48;1.90;;;1.60;;
4704;SDS011;2366;51.332;6.610;2022-09-01T15:03:14;1.97;;;1.30;;
4704;SDS011;2366;51.332;6.610;2022-09-01T15:05:42;1.90;;;0.87;;
4704;SDS011;2366;51.332;6.610;2022-09-01T15:08:08;1.77;;;1.13;;
4704;SDS011;2366;51.332;6.610;2022-09-01T15:10:34;2.60;;;2.33;;
4704;SDS011;2366;51.332;6.610;2022-09-01T15:13:00;1.90;;;1.13;;
4704;SDS011;2366;51.332;6.610;2022-09-01T15:15:28;1.33;;;1.13;;
4704;SDS011;2366;51.332;6.610;2022-09-01T15:17:54;1.23;;;1.13;;
4704;SDS011;2366;51.332;6.610;2022-09-01T15:20:20;3.13;;;1.57;;
4704;SDS011;2366;51.332;6.610;2022-09-01T15:23:05;0.80;;;0.80;;
4704;SDS011;2366;51.332;6.610;2022-09-01T15:25:31;1.47;;;1.13;;
4704;SDS011;2366;51.332;6.610;2022-09-01T15:27:57;0.90;;;0.90;;
4704;SDS011;2366;51.332;6.610;2022-09-01T15:30:22;7.67;;;1.50;;
4704;SDS011;2366;51.332;6.610;2022-09-01T15:32:49;0.77;;;0.77;;
4704;SDS011;2366;51.332;6.610;2022-09-01T15:35:18;0.90;;;0.90;;
4704;SDS011;2366;51.332;6.610;2022-09-01T15:37:45;5.90;;;1.20;;
4704;SDS011;2366;51.332;6.610;2022-09-01T15:40:11;1.00;;;1.00;;
4704;SDS011;2366;51.332;6.610;2022-09-01T15:42:37;2.00;;;1.17;;
4704;SDS011;2366;51.332;6.610;2022-09-01T15:45:05;0.80;;;0.73;;
4704;SDS011;2366;51.332;6.610;2022-09-01T15:47:32;1.37;;;0.93;;
4704;SDS011;2366;51.332;6.610;2022-09-01T15:49:59;1.00;;;0.83;;
4704;SDS011;2366;51.332;6.610;2022-09-01T15:52:25;1.10;;;0.90;;
4704;SDS011;2366;51.332;6.610;2022-09-01T15:54:51;3.93;;;1.60;;
4704;SDS011;2366;51.332;6.610;2022-09-01T15:57:17;1.30;;;1.20;;
4704;SDS011;2366;51.332;6.610;2022-09-01T15:59:43;1.37;;;1.20;;
4704;SDS011;2366;51.332;6.610;2022-09-01T16:02:09;2.20;;;1.23;;
4704;SDS011;2366;51.332;6.610;2022-09-01T16:04:35;2.50;;;0.93;;
4704;SDS011;2366;51.332;6.610;2022-09-01T16:07:04;1.77;;;1.13;;
4704;SDS011;2366;51.332;6.610;2022-09-01T16:09:29;1.27;;;1.17;;
4704;SDS011;2366;51.332;6.610;2022-09-01T16:11:55;5.47;;;1.13;;
4704;SDS011;2366;51.332;6.610;2022-09-01T16:14:20;1.87;;;1.53;;
4704;SDS011;2366;51.332;6.610;2022-09-01T16:19:37;1.37;;;1.27;;
4704;SDS011;2366;51.332;6.610;2022-09-01T16:24:54;0.67;;;0.67;;
4704;SDS011;2366;51.332;6.610;2022-09-01T16:27:33;0.87;;;0.87;;